Flight Track Log - Related Links

Times and Time Zones

All times are in EDT time to prevent confusion due to time zone crossing. See the SWA1380 flight status page for this flight to view local times or setup timezone preferences in your user account.

Time Position Orientation Groundspeed Altitude Reporting Facility
EDT Latitude Longitude Course Direction KTS MPH feet Rate Location/Type
Fri 07:00:31 AM 41.7081 -71.4139 164° South 155 178 1,000  Level Boston Center
Fri 07:01:51 AM 41.6369 -71.3875 164° South 228 262 4,400 2,829 Climbing Boston Center
Fri 07:02:51 AM 41.5617 -71.3636 167° South 259 298 7,600 3,350 Climbing Boston Center
Fri 07:03:51 AM 41.4781 -71.3400 168° South 301 346 11,100 2,950 Climbing Boston Center
Fri 07:04:51 AM 41.3819 -71.3114 167° South 338 389 13,500 2,900 Climbing Boston Center
Fri 07:05:51 AM 41.2753 -71.2800 168° South 381 438 16,900 2,850 Climbing Boston Center
Fri 07:06:51 AM 41.1944 -71.3339 207° Southwest 378 435 19,200 2,450 Climbing Boston Center
Fri 07:07:51 AM 41.1331 -71.4481 235° Southwest 359 413 21,800 2,227 Climbing Boston Center
Fri 07:09:03 AM 41.0675 -71.5700 235° Southwest 383 441 24,100 2,182 Climbing Boston Center
Fri 07:10:03 AM 40.9831 -71.7169 233° Southwest 410 472 26,600 2,000 Climbing Boston Center
Fri 07:11:03 AM 40.9211 -71.8167 231° Southwest 430 495 28,100 1,800 Climbing Boston Center
Fri 07:12:03 AM 40.8031 -71.9686 224° Southwest 449 517 30,200 1,950 Climbing Boston Center
Fri 07:13:03 AM 40.7347 -72.0622 226° Southwest 449 517 32,000 1,800 Climbing Boston Center
Fri 07:14:03 AM 40.6350 -72.1939 225° Southwest 460 529 33,800 1,650 Climbing Boston Center
Fri 07:15:03 AM 40.5519 -72.3144 228° Southwest 460 529 35,300 1,600 Climbing Boston Center
Fri 07:16:03 AM 40.4644 -72.4347 226° Southwest 460 529 37,000 1,350 Climbing Boston Center
Fri 07:17:03 AM 40.3811 -72.5517 227° Southwest 455 524 38,000 500 Climbing Boston Center
Fri 07:18:03 AM 40.2975 -72.6658 226° Southwest 449 517 38,000  Level Boston Center
Fri 07:19:03 AM 40.2139 -72.7825 227° Southwest 444 511 38,000  Level Boston Center
Fri 07:20:03 AM 40.1300 -72.8986 227° Southwest 444 511 38,000  Level Boston Center
Fri 07:21:03 AM 40.0442 -73.0172 227° Southwest 449 517 38,000  Level Boston Center
Fri 07:21:23 AM 40.0219 -73.0503 229° Southwest 447 514 38,000  Level Washington Center
Fri 07:22:21 AM 39.9389 -73.1642 226° Southwest 434 499 38,000  Level Washington Center
Fri 07:23:21 AM 39.8536 -73.2806 226° Southwest 434 499 38,000  Level Washington Center
Fri 07:24:22 AM 39.7683 -73.3942 226° Southwest 434 499 38,000  Level Washington Center
Fri 07:25:22 AM 39.6725 -73.5156 224° Southwest 434 499 38,000  Level Washington Center
Fri 07:26:22 AM 39.5825 -73.6178 221° Southwest 435 501 38,000  Level Washington Center
Fri 07:27:22 AM 39.4883 -73.7119 218° Southwest 435 501 38,000  Level Washington Center
Fri 07:28:21 AM 39.3917 -73.8083 218° Southwest 441 507 38,000  Level Washington Center
Fri 07:29:23 AM 39.2953 -73.9047 218° Southwest 441 507 38,000  Level Washington Center
Fri 07:30:21 AM 39.2006 -74.0006 218° Southwest 441 507 38,000  Level Washington Center
Fri 07:31:23 AM 39.1039 -74.0936 217° Southwest 436 502 38,000  Level Washington Center
Fri 07:32:20 AM 39.0072 -74.1919 218° Southwest 436 502 38,000  Level Washington Center
Fri 07:33:22 AM 38.9103 -74.2872 217° Southwest 441 507 38,000  Level Washington Center
Fri 07:34:20 AM 38.8133 -74.3822 217° Southwest 446 513 38,000  Level Washington Center
Fri 07:35:21 AM 38.7142 -74.4794 217° Southwest 451 519 38,000  Level Washington Center
Fri 07:36:21 AM 38.6272 -74.5658 218° Southwest 451 519 38,000  Level Washington Center
Fri 07:37:22 AM 38.5300 -74.6547 216° Southwest 451 519 38,000  Level Washington Center
Fri 07:38:22 AM 38.4369 -74.7489 218° Southwest 444 511 38,000  Level Washington Center
Fri 07:39:23 AM 38.3417 -74.8453 218° Southwest 439 505 38,000  Level Washington Center
Fri 07:40:21 AM 38.2381 -74.9442 217° Southwest 432 497 38,000  Level Washington Center
Fri 07:41:22 AM 38.1447 -75.0347 217° Southwest 437 503 38,000  Level Washington Center
Fri 07:42:22 AM 38.0492 -75.1278 217° Southwest 437 503 38,000  Level Washington Center
Fri 07:43:23 AM 37.9514 -75.2153 215° Southwest 437 503 38,000  Level Washington Center
Fri 07:44:20 AM 37.8600 -75.3050 218° Southwest 431 496 38,000  Level Washington Center
Fri 07:45:21 AM 37.7622 -75.3947 216° Southwest 431 496 38,000  Level Washington Center
Fri 07:46:22 AM 37.6664 -75.4842 216° Southwest 431 496 38,000  Level Washington Center
Fri 07:47:22 AM 37.5744 -75.5736 218° Southwest 431 496 38,000  Level Washington Center
Fri 07:48:23 AM 37.4786 -75.6625 216° Southwest 431 496 38,000  Level Washington Center
Fri 07:49:21 AM 37.3847 -75.7486 216° Southwest 431 496 38,000  Level Washington Center
Fri 07:50:22 AM 37.2886 -75.8372 216° Southwest 431 496 38,000  Level Washington Center
Fri 07:51:23 AM 37.1944 -75.9256 217° Southwest 431 496 38,000  Level Washington Center
Fri 07:52:21 AM 37.1025 -76.0111 217° Southwest 431 496 38,000  Level Washington Center
Fri 07:53:21 AM 37.0061 -76.1017 217° Southwest 431 496 38,000  Level Washington Center
Fri 07:54:22 AM 36.9078 -76.1842 214° Southwest 436 502 38,000  Level Washington Center
Fri 07:55:22 AM 36.8114 -76.2717 216° Southwest 436 502 38,000  Level Washington Center
Fri 07:56:23 AM 36.7128 -76.3589 215° Southwest 436 502 38,000  Level Washington Center
Fri 07:57:20 AM 36.6183 -76.4511 218° Southwest 430 495 38,000  Level Washington Center
Fri 07:58:21 AM 36.5236 -76.5381 216° Southwest 430 495 38,000  Level Washington Center
Fri 07:59:22 AM 36.4250 -76.6244 215° Southwest 430 495 38,000  Level Washington Center
Fri 08:00:23 AM 36.3261 -76.7108 215° Southwest 430 495 38,000  Level Washington Center
Fri 08:01:21 AM 36.2292 -76.7997 216° Southwest 430 495 38,000  Level Washington Center
Fri 08:02:22 AM 36.1303 -76.8881 216° Southwest 435 501 38,000  Level Washington Center
Fri 08:03:35 AM 36.0100 -76.9967 216° Southwest 440 506 38,000  Level Washington Center
Fri 08:04:35 AM 35.9089 -77.0819 214° Southwest 440 506 38,000  Level Washington Center
Fri 08:05:34 AM 35.8119 -77.1722 217° Southwest 445 512 38,000  Level Washington Center
Fri 08:06:34 AM 35.7125 -77.2600 216° Southwest 445 512 38,000  Level Washington Center
Fri 08:07:35 AM 35.6089 -77.3497 215° Southwest 445 512 38,000  Level Washington Center
Fri 08:08:33 AM 35.5056 -77.4394 215° Southwest 450 518 38,000  Level Washington Center
Fri 08:09:34 AM 35.4061 -77.5261 215° Southwest 455 524 38,000  Level Washington Center
Fri 08:10:34 AM 35.3083 -77.6231 219° Southwest 455 524 38,000 397 Level Washington Center
Fri 08:11:35 AM 35.2150 -77.7200 220° Southwest 449 517 38,800 763 Climbing Washington Center
Fri 08:12:32 AM 35.1319 -77.8042 220° Southwest 449 517 39,500 610 Climbing Washington Center
Fri 08:13:33 AM 35.0364 -77.9031 220° Southwest 449 517 40,000 248 Climbing Washington Center
Fri 08:14:33 AM 34.9403 -78.0042 221° Southwest 449 517 40,000  Level Washington Center
Fri 08:15:34 AM 34.8444 -78.1000 219° Southwest 454 522 40,000  Level Washington Center
Fri 08:16:35 AM 34.7506 -78.2058 223° Southwest 459 528 40,000  Level Washington Center
Fri 08:17:33 AM 34.6522 -78.3036 219° Southwest 464 534 40,000  Level Washington Center
Fri 08:18:15 AM 34.5756 -78.3817 220° Southwest 466 536 40,000  Level Jacksonville Center
Fri 08:19:15 AM 34.4789 -78.4797 220° Southwest 461 531 40,000  Level Jacksonville Center
Fri 08:20:15 AM 34.3803 -78.5781 219° Southwest 461 531 40,000  Level Jacksonville Center
Fri 08:21:15 AM 34.2833 -78.6731 219° Southwest 461 531 40,000  Level Jacksonville Center
Fri 08:22:15 AM 34.1864 -78.7733 221° Southwest 461 531 40,000  Level Jacksonville Center
Fri 08:23:15 AM 34.0894 -78.8681 219° Southwest 455 524 40,000  Level Jacksonville Center
Fri 08:24:15 AM 33.9942 -78.9628 220° Southwest 455 524 40,000  Level Jacksonville Center
Fri 08:25:15 AM 33.8992 -79.0569 219° Southwest 455 524 40,000  Level Jacksonville Center
Fri 08:26:15 AM 33.8139 -79.1406 219° Southwest 455 524 40,000  Level Jacksonville Center
Fri 08:27:15 AM 33.7186 -79.2322 219° Southwest 455 524 40,000  Level Jacksonville Center
Fri 08:28:14 AM 33.6294 -79.3231 220° Southwest 437 503 40,000  Level Jacksonville Center
Fri 08:29:15 AM 33.5361 -79.4142 219° Southwest 437 503 40,000  Level Jacksonville Center
Fri 08:30:15 AM 33.4444 -79.5022 219° Southwest 442 509 40,000  Level Jacksonville Center
Fri 08:31:15 AM 33.3489 -79.5981 220° Southwest 442 509 40,000  Level Jacksonville Center
Fri 08:32:15 AM 33.2553 -79.6883 219° Southwest 442 509 40,000  Level Jacksonville Center
Fri 08:33:15 AM 33.1594 -79.7786 218° Southwest 442 509 40,000  Level Jacksonville Center
Fri 08:34:15 AM 33.0556 -79.8814 220° Southwest 442 509 40,000  Level Jacksonville Center
Fri 08:35:15 AM 32.9575 -79.9739 218° Southwest 442 509 40,000 -550 Level Jacksonville Center
Fri 08:36:15 AM 32.8572 -80.0636 217° Southwest 442 509 38,900 -1,550 Descending Jacksonville Center
Fri 08:37:15 AM 32.7544 -80.1408 212° Southwest 448 516 36,900 -1,950 Descending Jacksonville Center
Fri 08:38:15 AM 32.6519 -80.2181 212° Southwest 448 516 35,000 -1,850 Descending Jacksonville Center
Fri 08:39:15 AM 32.5469 -80.2950 212° Southwest 443 510 33,200 -1,400 Descending Jacksonville Center
Fri 08:40:15 AM 32.4419 -80.3719 212° Southwest 448 516 32,200 -1,000 Descending Jacksonville Center
Fri 08:41:15 AM 32.3372 -80.4486 212° Southwest 448 516 31,200 -950 Descending Jacksonville Center
Fri 08:42:15 AM 32.2322 -80.5250 212° Southwest 449 517 30,300 -600 Descending Jacksonville Center
Fri 08:43:15 AM 32.1311 -80.6036 213° Southwest 442 509 30,000 -150 Descending Jacksonville Center
Fri 08:44:15 AM 32.0281 -80.6772 211° Southwest 442 509 30,000  Level Jacksonville Center
Fri 08:45:15 AM 31.9311 -80.7433 210° Southwest 447 514 30,000  Level Jacksonville Center
Fri 08:46:15 AM 31.8156 -80.8267 212° Southwest 447 514 30,000  Level Jacksonville Center
Fri 08:47:15 AM 31.7103 -80.9022 211° Southwest 447 514 30,000  Level Jacksonville Center
Fri 08:48:15 AM 31.6153 -80.9703 211° Southwest 455 524 30,000  Level Jacksonville Center
Fri 08:49:15 AM 31.4956 -81.0531 211° Southwest 455 524 30,000  Level Jacksonville Center
Fri 08:50:15 AM 31.3922 -81.1306 213° Southwest 455 524 30,000  Level Jacksonville Center
Fri 08:51:15 AM 31.2697 -81.1742 197° South 455 524 30,000  Level Jacksonville Center
Fri 08:52:15 AM 31.1403 -81.1717 179° South 459 528 30,000  Level Jacksonville Center
Fri 08:53:15 AM 31.0128 -81.1642 177° South 459 528 30,000  Level Jacksonville Center
Fri 08:54:15 AM 30.8833 -81.1619 179° South 459 528 30,000  Level Jacksonville Center
Fri 08:55:15 AM 30.7536 -81.1594 179° South 459 528 30,000 -100 Level Jacksonville Center
Fri 08:56:15 AM 30.6264 -81.1544 178° South 459 528 29,800 -650 Descending Jacksonville Center
Fri 08:57:15 AM 30.5011 -81.1519 179° South 459 528 28,700 -1,050 Descending Jacksonville Center
Fri 08:58:15 AM 30.3756 -81.1469 178° South 459 528 27,700 -900 Descending Jacksonville Center
Fri 08:59:15 AM 30.2650 -81.1442 179° South 459 528 26,900 -900 Descending Jacksonville Center
Fri 09:00:15 AM 30.1439 -81.1417 179° South 453 521 25,900 -1,000 Descending Jacksonville Center
Fri 09:01:15 AM 30.0247 -81.1389 179° South 440 506 24,900 -450 Descending Jacksonville Center
Fri 09:02:15 AM 29.9058 -81.1339 178° South 429 494 25,000 50 Climbing Jacksonville Center
Fri 09:03:15 AM 29.7889 -81.1311 179° South 429 494 25,000 -550 Level Jacksonville Center
Fri 09:04:15 AM 29.6697 -81.1261 178° South 424 488 23,900 -1,600 Descending Jacksonville Center
Fri 09:05:15 AM 29.5569 -81.1258 180° South 419 482 21,800 -2,200 Descending Jacksonville Center
Fri 09:06:15 AM 29.4400 -81.1183 177° South 393 452 19,500 -2,050 Descending Jacksonville Center
Fri 09:07:15 AM 29.3378 -81.1156 179° South 374 430 17,700 -2,000 Descending Jacksonville Center
Fri 09:08:15 AM 29.2333 -81.1103 177° South 374 430 15,500 -2,100 Descending Jacksonville Center
Fri 09:09:15 AM 29.1331 -81.1025 176° South 364 419 13,500 -1,700 Descending Jacksonville Center
Fri 09:10:15 AM 29.0408 -81.0922 174° South 354 407 12,100 -1,050 Descending Jacksonville Center
Fri 09:11:15 AM 28.9531 -81.0797 173° South 325 374 11,400 -1,100 Descending Jacksonville Center
Fri 09:12:15 AM 28.8714 -81.0644 171° South 320 368 9,900 -1,403 Descending Jacksonville Center
Fri 09:12:32 AM 28.8500 -81.0667 185° South 300 345 9,600 -1,463 Descending Orlando TRACON
Fri 09:13:37 AM 28.7833 -81.1167 213° Southwest 281 323 7,900 -1,550 Descending Orlando TRACON
Fri 09:14:32 AM 28.7167 -81.1500 204° Southwest 266 306 6,500 -1,774 Descending Orlando TRACON
Fri 09:15:32 AM 28.6667 -81.2167 229° Southwest 267 307 4,500 -1,400 Descending Orlando TRACON
Fri 09:16:32 AM 28.6000 -81.2500 204° Southwest 238 274 3,700 -950 Descending Orlando TRACON
Fri 09:17:32 AM 28.5667 -81.3000 233° Southwest 184 212 2,600 -942 Descending Orlando TRACON
Fri 09:18:33 AM 28.5167 -81.3000 180° South 146 168 1,800 -744 Descending Orlando TRACON
Fri 09:19:33 AM 28.4833 -81.3000 180° South 132 152 1,100 -700 Descending Orlando TRACON
Fri 09:20:33 AM 28.4500 -81.3000 180° South 129 148 400 -700 Descending Orlando TRACON
Fri 09:22:00 AM 28.4294 -81.3090 180° South  Level Estimated
Fri 09:29:00 AM 28.4294 -81.3090 180° South  Level Estimated
Fri 09:30:00 AM 28.4294 -81.3090 180° South  Level Estimated
Fri 09:31:00 AM 28.4294 -81.3090 180° South  Level Estimated

Login

Don't have an account? Register now (free) for customized features, flight alerts, and more!